Time;durP1;ratioP1;P1;durP2;ratioP2;P2;SDS_P1;SDS_P2;PMS_P1;PMS_P2;Temp;Humidity;BMP_temperature;BMP_pressure;BME280_temperature;BME280_humidity;BME280_pressure;Samples;Min_cycle;Max_cycle;Signal;HPM_P1;HPM_P2
2023/07/20 00:02:13;;;;;;;67.80;4.33;;;20.60;1.00;;;;;;5097492;28;20170;-85
2023/07/20 00:04:39;;;;;;;70.27;4.07;;;20.60;1.00;;;;;;5097190;28;20508;-85
2023/07/20 00:07:05;;;;;;;70.10;4.30;;;20.60;1.00;;;;;;5097506;28;20568;-85
2023/07/20 00:09:31;;;;;;;72.30;4.70;;;20.60;1.00;;;;;;5080044;28;20183;-85
2023/07/20 00:11:56;;;;;;;68.47;4.30;;;20.70;1.00;;;;;;5079332;28;20426;-85
2023/07/20 00:14:22;;;;;;;67.13;4.40;;;20.60;1.00;;;;;;5096936;28;20171;-84
2023/07/20 00:16:55;;;;;;;67.90;4.13;;;20.60;1.00;;;;;;5097500;28;20204;-85
2023/07/20 00:19:24;;;;;;;67.07;4.20;;;20.60;1.00;;;;;;5097382;28;20179;-85
2023/07/20 00:21:50;;;;;;;67.10;5.13;;;20.60;1.00;;;;;;5097576;28;20397;-85
2023/07/20 00:24:16;;;;;;;67.60;4.30;;;20.60;1.00;;;;;;5097175;28;20448;-85
2023/07/20 00:26:43;;;;;;;67.20;4.73;;;20.60;1.00;;;;;;5099959;28;20156;-82
2023/07/20 00:29:09;;;;;;;68.47;4.87;;;20.30;3.80;;;;;;5098147;28;20424;-85
2023/07/20 00:31:36;;;;;;;68.50;5.63;;;20.20;5.10;;;;;;5098232;28;20430;-85
2023/07/20 00:34:03;;;;;;;68.60;4.87;;;20.20;8.50;;;;;;5079358;28;20406;-85
2023/07/20 00:36:28;;;;;;;68.30;5.53;;;20.20;8.80;;;;;;5079042;28;20558;-85
2023/07/20 00:38:54;;;;;;;69.07;5.90;;;20.20;8.00;;;;;;5078674;28;20426;-85
2023/07/20 00:41:20;;;;;;;67.20;4.80;;;20.20;9.20;;;;;;5096830;28;20169;-85
2023/07/20 00:43:46;;;;;;;69.67;5.10;;;20.30;7.50;;;;;;5096396;28;20172;-85
2023/07/20 00:46:12;;;;;;;70.63;6.23;;;20.30;6.60;;;;;;5096422;28;20403;-85
2023/07/20 00:48:38;;;;;;;66.50;5.00;;;20.30;9.50;;;;;;5078431;28;20558;-85
2023/07/20 00:51:05;;;;;;;68.97;5.70;;;20.10;13.20;;;;;;5079965;28;20431;-85
2023/07/20 00:53:31;;;;;;;66.87;5.70;;;20.20;11.60;;;;;;5078621;28;20401;-85
2023/07/20 00:55:57;;;;;;;66.87;5.80;;;20.20;11.90;;;;;;5080919;28;20440;-85
2023/07/20 00:58:24;;;;;;;68.43;5.67;;;20.20;13.00;;;;;;5082326;28;20437;-85
2023/07/20 01:00:49;;;;;;;69.10;6.77;;;20.30;14.20;;;;;;5101610;28;20404;-85
2023/07/20 01:03:15;;;;;;;69.23;6.60;;;20.30;16.30;;;;;;5101013;28;20432;-85
2023/07/20 01:05:46;;;;;;;68.87;6.43;;;20.20;18.60;;;;;;5100345;28;20206;-85
2023/07/20 01:08:17;;;;;;;67.87;7.23;;;20.20;19.50;;;;;;5082964;28;20288;-85
2023/07/20 01:10:51;;;;;;;71.20;8.20;;;20.10;21.70;;;;;;5102992;28;20385;-85
2023/07/20 01:13:19;;;;;;;67.20;8.37;;;20.10;23.30;;;;;;5102279;28;20391;-85
2023/07/20 01:15:51;;;;;;;71.17;8.30;;;20.10;23.90;;;;;;5101829;28;20486;-85
2023/07/20 01:18:17;;;;;;;69.67;8.83;;;20.10;23.30;;;;;;5101720;28;20514;-85
2023/07/20 01:20:43;;;;;;;75.90;9.30;;;20.20;21.40;;;;;;5101565;28;20405;-85
2023/07/20 01:23:30;;;;;;;68.70;8.40;;;20.20;22.50;;;;;;5082080;28;20415;-85
2023/07/20 01:26:17;;;;;;;69.80;8.93;;;20.10;26.70;;;;;;5082351;28;20457;-85
2023/07/20 01:29:05;;;;;;;69.17;9.53;;;20.10;25.50;;;;;;5082921;28;20435;-85
2023/07/20 01:31:33;;;;;;;69.77;11.80;;;20.00;28.00;;;;;;5086005;28;20411;-85
2023/07/20 01:34:01;;;;;;;70.53;13.73;;;20.10;28.70;;;;;;5102502;28;20966;-84
2023/07/20 01:36:30;;;;;;;72.00;14.87;;;20.00;30.50;;;;;;5102803;28;20406;-84
2023/07/20 01:38:57;;;;;;;72.40;16.67;;;20.00;32.40;;;;;;5101344;28;20449;-84
2023/07/20 01:41:23;;;;;;;71.23;16.47;;;20.00;34.10;;;;;;5100937;28;20411;-84
2023/07/20 01:43:49;;;;;;;74.17;18.40;;;20.00;33.30;;;;;;5084575;28;20421;-84
2023/07/20 01:46:15;;;;;;;74.23;23.90;;;19.80;35.80;;;;;;5101847;28;20402;-84
2023/07/20 01:48:40;;;;;;;75.17;21.77;;;19.80;37.00;;;;;;5101622;28;20254;-84
2023/07/20 01:51:06;;;;;;;77.63;24.47;;;19.90;35.40;;;;;;5099990;28;20436;-85
2023/07/20 01:53:32;;;;;;;76.30;25.63;;;19.70;45.00;;;;;;5083185;28;20175;-84
2023/07/20 01:55:58;;;;;;;75.20;24.23;;;19.70;44.30;;;;;;5101254;28;20180;-84
2023/07/20 01:58:24;;;;;;;78.67;29.90;;;19.70;46.30;;;;;;5101920;28;20192;-84
2023/07/20 02:00:50;;;;;;;76.77;28.00;;;19.60;48.70;;;;;;5101635;28;20217;-84
2023/07/20 02:03:15;;;;;;;76.27;28.90;;;19.70;47.70;;;;;;5183813;22;20534;-84
2023/07/20 02:05:45;;;;;;;75.03;23.43;;;19.70;49.10;;;;;;5133361;28;20213;-83
2023/07/20 02:08:13;;;;;;;76.40;29.43;;;19.70;48.60;;;;;;5126733;28;20214;-83
2023/07/20 02:10:39;;;;;;;76.37;27.90;;;19.70;48.00;;;;;;5111589;28;20395;-83
2023/07/20 02:13:05;;;;;;;80.10;29.77;;;19.60;49.20;;;;;;5111690;28;20415;-83
2023/07/20 02:15:30;;;;;;;78.77;35.27;;;19.50;51.80;;;;;;5109693;28;20161;-83
2023/07/20 02:17:56;;;;;;;76.70;29.47;;;19.60;49.00;;;;;;5107789;28;20574;-82
2023/07/20 02:20:21;;;;;;;79.20;33.03;;;19.60;48.60;;;;;;5107304;28;20686;-82
2023/07/20 02:22:47;;;;;;;77.63;32.07;;;19.60;47.90;;;;;;5089151;28;20174;-83
2023/07/20 02:25:13;;;;;;;77.50;32.33;;;19.60;46.10;;;;;;5107246;28;20190;-83
2023/07/20 02:27:38;;;;;;;77.70;32.10;;;19.50;50.00;;;;;;5106671;28;20174;-82
2023/07/20 02:30:05;;;;;;;79.90;34.57;;;19.50;51.30;;;;;;5107818;28;20216;-83
2023/07/20 02:32:31;;;;;;;77.90;31.60;;;19.50;49.00;;;;;;5106920;28;20500;-83
2023/07/20 02:34:58;;;;;;;78.00;30.10;;;19.50;48.20;;;;;;5090371;28;20408;-82
2023/07/20 02:37:24;;;;;;;78.00;34.40;;;19.60;47.70;;;;;;5089453;28;20451;-83
2023/07/20 02:39:50;;;;;;;80.20;30.40;;;19.60;47.10;;;;;;5106710;28;20420;-83
2023/07/20 02:42:15;;;;;;;78.07;32.43;;;19.50;47.70;;;;;;5106788;28;20402;-83
2023/07/20 02:44:44;;;;;;;78.20;33.70;;;19.40;50.50;;;;;;5106925;28;20193;-82
2023/07/20 02:47:10;;;;;;;83.70;33.60;;;19.40;53.70;;;;;;5107253;28;20159;-82
2023/07/20 02:49:36;;;;;;;76.47;30.07;;;19.50;52.10;;;;;;5107339;28;20453;-82
2023/07/20 02:52:01;;;;;;;76.87;32.23;;;19.40;52.90;;;;;;5107524;28;20171;-82
2023/07/20 02:54:29;;;;;;;76.67;29.87;;;19.40;53.90;;;;;;5107334;28;20237;-82
2023/07/20 02:56:55;;;;;;;82.80;31.47;;;19.40;50.20;;;;;;5088816;28;20181;-83
2023/07/20 02:59:21;;;;;;;77.40;28.00;;;19.40;51.20;;;;;;5109653;28;20424;-83
2023/07/20 03:01:46;;;;;;;81.57;30.97;;;19.40;47.40;;;;;;5088566;28;20162;-83
2023/07/20 03:04:12;;;;;;;79.10;30.30;;;19.30;50.10;;;;;;5087972;28;20262;-82
2023/07/20 03:06:38;;;;;;;77.10;25.47;;;19.30;49.10;;;;;;5107113;28;20167;-82
2023/07/20 03:09:04;;;;;;;78.30;27.70;;;19.30;51.00;;;;;;5106830;28;20317;-82
2023/07/20 03:11:30;;;;;;;75.07;25.97;;;19.20;48.20;;;;;;5105927;28;20163;-82
2023/07/20 03:13:56;;;;;;;78.70;24.60;;;19.20;49.00;;;;;;5105606;28;20447;-82
2023/07/20 03:16:23;;;;;;;72.80;22.33;;;19.20;47.60;;;;;;5087549;28;20706;-82
2023/07/20 03:18:49;;;;;;;73.73;20.17;;;19.30;45.20;;;;;;5105446;28;20215;-82
2023/07/20 03:21:17;;;;;;;78.20;26.67;;;19.20;43.90;;;;;;5106619;28;20400;-82
2023/07/20 03:23:43;;;;;;;75.30;23.07;;;19.20;46.90;;;;;;5106136;28;20163;-82
2023/07/20 03:26:09;;;;;;;79.57;25.97;;;19.20;44.60;;;;;;5106745;28;20393;-82
2023/07/20 03:28:38;;;;;;;74.90;24.67;;;19.20;44.20;;;;;;5087561;28;20189;-82
2023/07/20 03:31:05;;;;;;;76.97;28.07;;;19.20;45.00;;;;;;5106410;28;20448;-82
2023/07/20 03:33:31;;;;;;;75.60;24.93;;;19.20;48.10;;;;;;5106249;28;20398;-82
2023/07/20 03:35:57;;;;;;;80.10;30.27;;;19.10;46.30;;;;;;5106879;28;20400;-82
2023/07/20 03:38:26;;;;;;;82.73;31.13;;;19.20;46.90;;;;;;5106097;28;20431;-82
2023/07/20 03:40:54;;;;;;;77.97;27.10;;;19.20;45.20;;;;;;5087635;28;20433;-82
2023/07/20 03:43:21;;;;;;;76.83;31.20;;;19.20;48.70;;;;;;5087473;28;20510;-83
2023/07/20 03:45:47;;;;;;;75.50;29.80;;;19.20;47.50;;;;;;5106006;28;20441;-82
2023/07/20 03:48:15;;;;;;;76.17;27.30;;;19.20;46.90;;;;;;5089212;28;20422;-82
2023/07/20 03:50:41;;;;;;;76.33;25.93;;;19.30;47.00;;;;;;5106275;28;20488;-82
2023/07/20 03:53:07;;;;;;;77.10;29.00;;;19.20;45.40;;;;;;5105804;28;20398;-83
2023/07/20 03:55:32;;;;;;;73.77;24.83;;;19.20;45.30;;;;;;5105039;28;20200;-82
2023/07/20 03:57:58;;;;;;;75.70;29.63;;;19.20;46.30;;;;;;5087557;28;20194;-82
2023/07/20 04:00:24;;;;;;;74.80;28.60;;;19.20;46.10;;;;;;5105296;28;20219;-82
2023/07/20 04:02:50;;;;;;;79.50;32.33;;;19.10;48.10;;;;;;5105706;28;20188;-82
2023/07/20 04:05:16;;;;;;;77.03;28.73;;;19.20;47.50;;;;;;5105429;28;20440;-82
2023/07/20 04:07:41;;;;;;;76.67;26.40;;;19.20;45.70;;;;;;5106168;28;20162;-82
2023/07/20 04:10:08;;;;;;;81.03;32.57;;;19.20;46.60;;;;;;5105659;28;20463;-82
2023/07/20 04:12:34;;;;;;;76.13;27.47;;;19.20;46.00;;;;;;5105496;28;20636;-82
2023/07/20 04:15:01;;;;;;;76.00;27.27;;;19.30;44.10;;;;;;5105771;28;20402;-82
2023/07/20 04:17:27;;;;;;;76.50;29.90;;;19.30;42.20;;;;;;5087372;28;20420;-82
2023/07/20 04:19:53;;;;;;;75.60;25.63;;;19.30;45.30;;;;;;5088536;28;20792;-82
2023/07/20 04:22:18;;;;;;;73.37;23.63;;;19.30;41.80;;;;;;5107211;28;20230;-82
2023/07/20 04:24:44;;;;;;;77.97;28.93;;;19.30;44.20;;;;;;5088640;28;20191;-82
2023/07/20 04:27:09;;;;;;;76.67;28.53;;;19.30;44.10;;;;;;5108258;28;20214;-82
2023/07/20 04:29:35;;;;;;;76.67;27.00;;;19.20;45.80;;;;;;5107071;28;20189;-82
2023/07/20 04:32:01;;;;;;;77.93;29.17;;;19.20;47.70;;;;;;5091922;28;20230;-82
2023/07/20 04:34:26;;;;;;;76.03;26.87;;;19.20;47.40;;;;;;5109867;28;20194;-82
2023/07/20 04:36:53;;;;;;;77.70;28.93;;;19.20;47.90;;;;;;5110768;28;20190;-82
2023/07/20 04:39:18;;;;;;;82.20;33.33;;;19.20;48.10;;;;;;5109819;28;20648;-82
2023/07/20 04:41:44;;;;;;;79.10;31.30;;;19.10;49.70;;;;;;5109947;28;20406;-82
2023/07/20 04:44:10;;;;;;;77.63;32.37;;;19.20;48.80;;;;;;5109696;28;20197;-83
2023/07/20 04:46:35;;;;;;;77.93;33.10;;;19.20;50.40;;;;;;5109813;28;20248;-82
2023/07/20 04:49:01;;;;;;;80.40;37.30;;;19.20;49.30;;;;;;5109388;28;20210;-82
2023/07/20 04:51:30;;;;;;;76.37;31.97;;;19.30;48.70;;;;;;5091245;28;20188;-82
2023/07/20 04:53:56;;;;;;;78.70;32.83;;;19.30;47.20;;;;;;5110265;28;20405;-82
2023/07/20 04:56:23;;;;;;;76.17;29.47;;;19.30;46.30;;;;;;5110211;28;20907;-81
2023/07/20 04:58:48;;;;;;;81.40;37.43;;;19.30;49.30;;;;;;5109230;28;20428;-81
2023/07/20 05:01:14;;;;;;;79.77;32.43;;;19.20;51.90;;;;;;5108424;28;20488;-81
2023/07/20 05:03:40;;;;;;;76.80;33.53;;;19.20;52.40;;;;;;5107678;28;20189;-82
2023/07/20 05:06:05;;;;;;;80.00;32.77;;;19.10;52.40;;;;;;5107910;28;20200;-82
2023/07/20 05:08:31;;;;;;;75.60;31.20;;;19.20;52.50;;;;;;5108696;28;20200;-82
2023/07/20 05:10:57;;;;;;;80.07;37.90;;;19.30;50.60;;;;;;5109799;28;20184;-82
2023/07/20 05:13:22;;;;;;;78.90;33.37;;;19.20;54.10;;;;;;5108892;28;20177;-82
2023/07/20 05:15:54;;;;;;;79.77;31.97;;;19.20;55.40;;;;;;5109344;28;20254;-82
2023/07/20 05:18:20;;;;;;;77.20;34.60;;;19.20;55.70;;;;;;5109990;28;20194;-81
2023/07/20 05:20:47;;;;;;;80.33;31.20;;;19.30;53.50;;;;;;5109186;28;20405;-82
2023/07/20 05:23:13;;;;;;;80.47;32.13;;;19.20;53.90;;;;;;5109125;28;20416;-82
2023/07/20 05:25:39;;;;;;;80.83;34.67;;;19.20;56.10;;;;;;5110076;28;20449;-81
2023/07/20 05:28:04;;;;;;;79.57;33.03;;;19.20;56.40;;;;;;5107874;28;20685;-81
2023/07/20 05:30:30;;;;;;;76.47;29.83;;;19.30;54.20;;;;;;5105460;28;20241;-82
2023/07/20 05:32:56;;;;;;;77.33;28.03;;;19.10;61.60;;;;;;5086688;28;20236;-82
2023/07/20 05:35:22;;;;;;;81.03;34.33;;;19.10;62.00;;;;;;5104543;28;20177;-82
2023/07/20 05:37:48;;;;;;;77.17;30.57;;;19.00;64.90;;;;;;5103808;28;20443;-82
2023/07/20 05:40:18;;;;;;;78.73;28.57;;;19.10;62.20;;;;;;5104148;28;20400;-82
2023/07/20 05:42:51;;;;;;;79.50;31.13;;;19.00;66.50;;;;;;5084020;28;20164;-82
2023/07/20 05:45:18;;;;;;;77.23;27.97;;;19.10;65.60;;;;;;5100385;28;20449;-82
2023/07/20 05:47:44;;;;;;;91.83;36.30;;;19.20;61.50;;;;;;5098709;28;20401;-80
2023/07/20 05:50:10;;;;;;;77.43;27.83;;;19.10;65.50;;;;;;5097804;28;20460;-80
2023/07/20 05:52:38;;;;;;;78.43;32.63;;;19.10;63.80;;;;;;5098012;28;20178;-80
2023/07/20 05:55:05;;;;;;;80.10;31.67;;;19.10;62.20;;;;;;5097751;28;20498;-80
2023/07/20 05:57:30;;;;;;;79.27;30.63;;;19.10;61.20;;;;;;5097658;28;20488;-80
2023/07/20 05:59:56;;;;;;;83.17;30.83;;;19.20;59.40;;;;;;5097650;28;20513;-80
2023/07/20 06:02:22;;;;;;;75.33;26.60;;;19.20;58.30;;;;;;5098257;28;20171;-80
2023/07/20 06:04:47;;;;;;;82.77;33.63;;;19.20;59.00;;;;;;5079291;28;20776;-80
2023/07/20 06:07:13;;;;;;;78.37;30.83;;;19.40;56.70;;;;;;5097920;28;20159;-80
2023/07/20 06:09:42;;;;;;;81.57;29.73;;;19.30;58.10;;;;;;5098380;28;20176;-81
2023/07/20 06:12:09;;;;;;;76.93;27.17;;;19.30;60.60;;;;;;5098274;28;20168;-80
2023/07/20 06:14:35;;;;;;;80.83;37.47;;;19.30;59.30;;;;;;5097770;28;20802;-81
2023/07/20 06:17:00;;;;;;;78.17;30.80;;;19.40;57.80;;;;;;5079366;28;20413;-81
2023/07/20 06:19:26;;;;;;;82.20;36.20;;;19.50;55.90;;;;;;5097809;28;20421;-81
2023/07/20 06:21:52;;;;;;;80.27;36.40;;;19.60;49.60;;;;;;5097675;28;20169;-81
2023/07/20 06:24:18;;;;;;;80.07;35.43;;;19.70;49.20;;;;;;5079207;28;20356;-81
2023/07/20 06:26:44;;;;;;;78.57;32.00;;;19.70;44.30;;;;;;5079629;28;20221;-81
2023/07/20 06:29:10;;;;;;;87.53;35.43;;;19.70;47.00;;;;;;5097673;28;20942;-80
2023/07/20 06:31:36;;;;;;;83.33;36.13;;;19.70;46.10;;;;;;5097709;28;20634;-81
2023/07/20 06:34:02;;;;;;;80.87;34.93;;;19.60;45.60;;;;;;5080428;28;20418;-82
2023/07/20 06:36:28;;;;;;;82.63;37.53;;;19.60;46.10;;;;;;5098566;28;20429;-81
2023/07/20 06:38:55;;;;;;;79.73;34.93;;;19.60;46.60;;;;;;5079748;28;20421;-81
2023/07/20 06:41:20;;;;;;;81.50;34.77;;;19.70;42.70;;;;;;5080784;28;20399;-81
2023/07/20 06:43:47;;;;;;;80.63;26.30;;;19.80;38.20;;;;;;5101161;28;20412;-81
2023/07/20 06:46:13;;;;;;;76.00;20.57;;;20.00;31.90;;;;;;5082675;28;20180;-81
2023/07/20 06:48:38;;;;;;;80.73;22.37;;;20.00;29.90;;;;;;5100415;28;20468;-81
2023/07/20 06:51:04;;;;;;;73.60;16.60;;;20.00;29.30;;;;;;5100706;28;20411;-81
2023/07/20 06:53:30;;;;;;;72.47;15.07;;;20.10;24.90;;;;;;5097550;28;20542;-81
2023/07/20 06:55:59;;;;;;;74.97;17.20;;;20.20;25.90;;;;;;5099148;28;20168;-81
2023/07/20 06:58:25;;;;;;;76.30;16.13;;;20.20;23.70;;;;;;5100916;28;20506;-81
2023/07/20 07:00:51;;;;;;;75.10;13.70;;;20.20;23.60;;;;;;5100000;28;20417;-81
2023/07/20 07:03:17;;;;;;;74.67;11.83;;;20.30;21.20;;;;;;5100251;28;20428;-81
2023/07/20 07:05:45;;;;;;;71.57;12.60;;;20.40;21.00;;;;;;5100354;28;20485;-81
2023/07/20 07:08:11;;;;;;;72.90;14.03;;;20.50;18.60;;;;;;5081211;28;20494;-81
2023/07/20 07:10:37;;;;;;;73.40;11.50;;;20.50;21.80;;;;;;5098782;28;20856;-81
2023/07/20 07:13:03;;;;;;;73.90;11.00;;;20.60;15.70;;;;;;5100696;28;20405;-81
2023/07/20 07:15:29;;;;;;;78.83;15.23;;;20.60;13.30;;;;;;5082468;28;20417;-81
2023/07/20 07:17:55;;;;;;;73.40;12.90;;;20.60;11.70;;;;;;5099178;28;20438;-81
2023/07/20 07:20:21;;;;;;;72.47;11.90;;;20.60;13.20;;;;;;5079643;28;20660;-81
2023/07/20 07:22:47;;;;;;;70.80;10.83;;;20.60;12.50;;;;;;5098389;28;20406;-81
2023/07/20 07:25:14;;;;;;;72.37;12.27;;;20.50;13.40;;;;;;5099052;28;20204;-81
2023/07/20 07:27:40;;;;;;;72.00;11.83;;;20.50;10.10;;;;;;5098796;28;20402;-81
2023/07/20 07:30:06;;;;;;;69.13;9.83;;;20.60;9.70;;;;;;5099898;28;20497;-81
2023/07/20 07:32:32;;;;;;;69.40;9.63;;;20.80;5.80;;;;;;5097974;28;20174;-81
2023/07/20 07:35:00;;;;;;;75.10;11.17;;;20.80;3.80;;;;;;5098087;28;20410;-81
2023/07/20 07:37:26;;;;;;;68.80;9.53;;;20.90;4.90;;;;;;5079394;28;20180;-81
2023/07/20 07:39:51;;;;;;;73.20;9.03;;;20.80;4.00;;;;;;5096259;28;20432;-81
2023/07/20 07:42:18;;;;;;;70.40;10.73;;;20.70;1.00;;;;;;5095616;28;20163;-81
2023/07/20 07:44:44;;;;;;;72.80;10.73;;;20.60;2.80;;;;;;5079547;28;20721;-81
2023/07/20 07:47:10;;;;;;;71.00;10.97;;;20.70;3.20;;;;;;5098985;28;20455;-81
2023/07/20 07:49:35;;;;;;;72.47;10.70;;;20.70;2.40;;;;;;5097436;28;20418;-81
2023/07/20 07:52:04;;;;;;;72.27;10.17;;;20.70;3.50;;;;;;5096666;28;20200;-81
2023/07/20 07:54:30;;;;;;;71.27;10.33;;;20.80;1.00;;;;;;5096696;28;20165;-81
2023/07/20 07:56:56;;;;;;;70.50;9.77;;;20.70;1.00;;;;;;5096751;28;20401;-81
2023/07/20 07:59:22;;;;;;;70.17;9.63;;;20.70;1.00;;;;;;5095629;28;20224;-81
2023/07/20 08:01:48;;;;;;;69.77;7.43;;;20.90;1.00;;;;;;5080026;28;20415;-81
2023/07/20 08:04:13;;;;;;;69.67;7.30;;;21.00;1.00;;;;;;5219931;22;20486;-81
2023/07/20 08:06:39;;;;;;;71.13;7.30;;;21.00;1.00;;;;;;5111156;28;20561;-83
2023/07/20 08:09:05;;;;;;;75.17;7.80;;;20.90;1.00;;;;;;5129673;27;20219;-83
2023/07/20 08:11:33;;;;;;;69.40;8.20;;;20.90;1.00;;;;;;5122831;28;20892;-83
2023/07/20 08:14:00;;;;;;;70.47;8.60;;;21.00;1.00;;;;;;5103710;28;20174;-83
2023/07/20 08:16:26;;;;;;;68.70;6.53;;;21.00;1.00;;;;;;5103680;28;20435;-83
2023/07/20 08:18:52;;;;;;;68.70;6.13;;;21.00;1.00;;;;;;5122373;28;20436;-83
2023/07/20 08:21:17;;;;;;;69.80;7.43;;;20.90;1.00;;;;;;5123356;28;20922;-83
2023/07/20 08:23:43;;;;;;;75.63;7.60;;;20.90;1.00;;;;;;5124025;28;20211;-83
2023/07/20 08:26:09;;;;;;;70.87;7.70;;;20.80;1.00;;;;;;5121310;28;20198;-83
2023/07/20 08:28:35;;;;;;;68.70;6.23;;;20.80;1.00;;;;;;5121571;28;20757;-83
2023/07/20 08:31:00;;;;;;;73.60;6.70;;;20.70;1.00;;;;;;5103741;28;20162;-83
2023/07/20 08:33:29;;;;;;;71.40;6.10;;;20.70;1.00;;;;;;5125159;28;20447;-83
2023/07/20 08:35:56;;;;;;;68.10;5.17;;;20.80;1.00;;;;;;5123827;28;20159;-83
2023/07/20 08:38:22;;;;;;;67.37;4.70;;;20.90;1.00;;;;;;5123227;28;20512;-83
2023/07/20 08:40:47;;;;;;;69.20;4.83;;;20.90;1.00;;;;;;5124781;28;20401;-83
2023/07/20 08:43:16;;;;;;;69.10;5.43;;;21.00;1.00;;;;;;5124557;28;20169;-83
2023/07/20 08:45:47;;;;;;;68.97;6.10;;;21.20;1.00;;;;;;5106765;28;20685;-83
2023/07/20 08:48:13;;;;;;;71.57;5.37;;;21.30;1.00;;;;;;5123868;28;20421;-83
2023/07/20 08:50:39;;;;;;;67.57;4.60;;;21.40;1.00;;;;;;5123939;28;20389;-82
2023/07/20 08:53:07;;;;;;;68.67;4.87;;;21.40;1.00;;;;;;5120400;28;20395;-82
2023/07/20 08:55:32;;;;;;;69.43;4.10;;;21.60;1.00;;;;;;5122499;28;20404;-82
2023/07/20 08:58:00;;;;;;;70.00;4.70;;;21.70;1.00;;;;;;5122378;28;20427;-82
2023/07/20 09:00:29;;;;;;;65.90;3.50;;;21.70;1.00;;;;;;5121533;28;20411;-83
2023/07/20 09:03:00;;;;;;;70.00;3.80;;;21.80;1.00;;;;;;5088456;28;20495;-81
2023/07/20 09:05:26;;;;;;;68.10;3.70;;;21.80;1.00;;;;;;5122233;28;20458;-82
2023/07/20 09:07:52;;;;;;;69.10;3.70;;;21.80;1.00;;;;;;5122303;28;20404;-82
2023/07/20 09:10:21;;;;;;;68.13;4.13;;;21.90;1.00;;;;;;5104022;28;20191;-82
2023/07/20 09:12:46;;;;;;;68.20;4.50;;;21.90;1.00;;;;;;5122062;28;20397;-82
2023/07/20 09:15:12;;;;;;;66.67;4.03;;;22.00;1.00;;;;;;5119347;28;20411;-82
2023/07/20 09:17:38;;;;;;;68.30;4.30;;;22.00;1.00;;;;;;5123529;28;20219;-82
2023/07/20 09:20:08;;;;;;;67.40;3.87;;;22.00;1.00;;;;;;5123809;28;20888;-82
2023/07/20 09:22:34;;;;;;;68.07;4.00;;;22.20;1.00;;;;;;5106361;28;20440;-82
2023/07/20 09:25:00;;;;;;;68.27;4.00;;;22.10;1.00;;;;;;5125673;28;20444;-81
2023/07/20 09:27:37;;;;;;;71.13;4.60;;;22.20;1.00;;;;;;5123332;28;20397;-82
2023/07/20 09:30:03;;;;;;;68.40;3.63;;;22.50;1.00;;;;;;5105798;28;20166;-82
2023/07/20 09:32:29;;;;;;;67.43;3.90;;;22.50;1.00;;;;;;5124963;28;20405;-82
2023/07/20 09:34:55;;;;;;;67.77;4.00;;;22.70;1.00;;;;;;5125672;28;20809;-82
2023/07/20 09:37:24;;;;;;;67.07;3.83;;;22.90;1.00;;;;;;5108703;28;20166;-83
2023/07/20 09:39:53;;;;;;;69.77;4.60;;;23.00;1.00;;;;;;5125772;28;20421;-83
2023/07/20 09:42:21;;;;;;;69.47;3.90;;;23.20;1.00;;;;;;5124795;28;20453;-83
2023/07/20 09:44:48;;;;;;;67.03;3.13;;;23.50;1.00;;;;;;5106300;28;20453;-83
2023/07/20 09:47:24;;;;;;;66.47;3.23;;;23.60;1.00;;;;;;5123862;28;20883;-83
2023/07/20 09:49:49;;;;;;;69.47;3.27;;;23.80;1.00;;;;;;5105370;28;20801;-82
2023/07/20 09:52:16;;;;;;;66.70;2.90;;;24.00;1.00;;;;;;5123934;28;20389;-83
2023/07/20 09:54:44;;;;;;;67.47;3.87;;;24.00;1.00;;;;;;5123638;28;20173;-83
2023/07/20 09:57:13;;;;;;;68.70;4.00;;;24.00;1.00;;;;;;5126712;28;20408;-83
2023/07/20 09:59:39;;;;;;;70.10;3.30;;;23.90;1.00;;;;;;5123026;28;20466;-83
2023/07/20 10:02:16;;;;;;;66.57;3.20;;;23.80;1.00;;;;;;5127890;28;20955;-83
2023/07/20 10:04:43;;;;;;;67.87;3.20;;;23.30;1.00;;;;;;5124513;28;20217;-83
2023/07/20 10:07:11;;;;;;;67.13;2.90;;;23.20;1.00;;;;;;5127161;28;20404;-83
2023/07/20 10:09:40;;;;;;;67.37;2.70;;;23.10;1.00;;;;;;5124789;28;20435;-83
2023/07/20 10:12:08;;;;;;;67.07;3.33;;;23.50;1.00;;;;;;5108511;28;20405;-83
2023/07/20 10:14:40;;;;;;;67.40;3.70;;;23.70;1.00;;;;;;5125917;28;20416;-83
2023/07/20 10:17:10;;;;;;;66.47;3.00;;;23.90;1.00;;;;;;5126150;28;20409;-83
2023/07/20 10:19:44;;;;;;;67.67;3.33;;;24.20;1.00;;;;;;5124862;28;20418;-82
2023/07/20 10:22:16;;;;;;;67.10;3.30;;;24.40;1.00;;;;;;5124927;28;20402;-82
2023/07/20 10:24:46;;;;;;;67.20;3.60;;;24.40;1.00;;;;;;5125092;28;20451;-82
2023/07/20 10:27:13;;;;;;;66.90;3.00;;;24.10;1.00;;;;;;5122881;28;20423;-83
2023/07/20 10:29:40;;;;;;;67.17;3.67;;;24.10;1.00;;;;;;5123280;28;20417;-83
2023/07/20 10:32:07;;;;;;;66.90;3.50;;;24.10;1.00;;;;;;5125020;28;20397;-82
2023/07/20 10:34:33;;;;;;;67.43;3.27;;;24.10;1.00;;;;;;5122752;28;20496;-83
2023/07/20 10:36:59;;;;;;;66.60;2.90;;;24.00;1.00;;;;;;5125468;28;20402;-83
2023/07/20 10:39:27;;;;;;;68.13;3.00;;;24.00;1.00;;;;;;5123634;28;20566;-83
2023/07/20 10:42:09;;;;;;;68.23;3.20;;;24.20;1.00;;;;;;5122414;28;20886;-82
2023/07/20 10:44:39;;;;;;;67.20;3.37;;;24.50;1.00;;;;;;5125022;28;20854;-82
2023/07/20 10:47:12;;;;;;;67.67;3.20;;;25.00;1.00;;;;;;5123543;28;20809;-83
2023/07/20 10:49:59;;;;;;;68.27;2.70;;;25.40;1.00;;;;;;5123379;28;20502;-83
2023/07/20 10:52:24;;;;;;;72.73;3.10;;;25.80;1.00;;;;;;5122398;28;20732;-83
2023/07/20 10:54:50;;;;;;;67.00;3.10;;;26.00;1.00;;;;;;5122676;28;20405;-83
2023/07/20 10:57:24;;;;;;;68.93;3.60;;;25.90;1.00;;;;;;5122772;28;20165;-83
2023/07/20 10:59:50;;;;;;;69.30;2.83;;;25.50;1.00;;;;;;5105990;28;20188;-83
2023/07/20 11:02:19;;;;;;;67.80;3.13;;;25.00;1.00;;;;;;5104531;28;20472;-83
2023/07/20 11:04:47;;;;;;;66.97;3.33;;;24.70;1.00;;;;;;5107091;28;20454;-83
2023/07/20 11:07:17;;;;;;;67.07;2.83;;;24.20;1.00;;;;;;5110753;28;20400;-83
2023/07/20 11:09:46;;;;;;;68.70;2.80;;;23.90;1.00;;;;;;5107458;28;20427;-83
2023/07/20 11:12:14;;;;;;;67.77;3.27;;;23.60;1.00;;;;;;5123960;28;20459;-83
2023/07/20 11:14:53;;;;;;;66.77;3.47;;;23.70;1.00;;;;;;5102326;28;20439;-83
2023/07/20 11:17:22;;;;;;;67.43;2.97;;;23.70;1.00;;;;;;5104126;28;20464;-83
2023/07/20 11:19:56;;;;;;;66.50;2.90;;;23.90;1.00;;;;;;5123109;28;20417;-83
2023/07/20 11:22:21;;;;;;;68.50;4.47;;;23.90;1.00;;;;;;5123328;28;20748;-83
2023/07/20 11:24:49;;;;;;;67.10;2.43;;;24.00;1.00;;;;;;5123056;28;20443;-83
2023/07/20 11:27:15;;;;;;;67.77;2.90;;;24.10;1.00;;;;;;5123469;28;20401;-83
2023/07/20 11:29:41;;;;;;;68.03;2.87;;;24.20;1.00;;;;;;5123497;28;20423;-83
2023/07/20 11:32:07;;;;;;;66.90;2.90;;;24.20;1.00;;;;;;5123952;28;20405;-83
2023/07/20 11:34:35;;;;;;;66.20;2.47;;;24.40;1.00;;;;;;5123933;28;20167;-83
2023/07/20 11:37:02;;;;;;;66.30;2.80;;;24.60;1.00;;;;;;5122222;28;20744;-83
2023/07/20 11:39:29;;;;;;;66.90;2.90;;;24.80;1.00;;;;;;5102552;28;20431;-83
2023/07/20 11:41:58;;;;;;;65.87;2.40;;;24.80;1.00;;;;;;5103213;28;20407;-83
2023/07/20 11:44:28;;;;;;;67.93;3.50;;;24.80;1.00;;;;;;5121894;28;20478;-83
2023/07/20 11:47:11;;;;;;;67.40;3.07;;;24.80;1.00;;;;;;5125483;28;20434;-83
2023/07/20 11:49:42;;;;;;;66.17;2.90;;;24.80;1.00;;;;;;5124425;28;20434;-83
2023/07/20 11:52:10;;;;;;;66.67;3.10;;;24.90;1.00;;;;;;5105593;28;20483;-82
2023/07/20 11:54:38;;;;;;;67.17;3.27;;;25.10;1.00;;;;;;5120914;28;20438;-83
2023/07/20 11:57:05;;;;;;;68.20;3.10;;;25.40;1.00;;;;;;5120498;28;20404;-83
2023/07/20 11:59:31;;;;;;;70.87;3.80;;;25.60;1.00;;;;;;5123553;28;20435;-83
2023/07/20 12:02:06;;;;;;;67.20;2.60;;;25.80;1.00;;;;;;5120063;28;20497;-82
2023/07/20 12:04:33;;;;;;;67.17;2.93;;;25.90;1.00;;;;;;5103527;28;20464;-83
2023/07/20 12:07:02;;;;;;;71.47;3.07;;;25.90;1.00;;;;;;5120984;28;20453;-82
2023/07/20 12:09:30;;;;;;;67.10;2.70;;;26.00;1.00;;;;;;5104062;28;20432;-83
2023/07/20 12:11:59;;;;;;;71.67;3.33;;;25.90;1.00;;;;;;5126634;28;20407;-82
2023/07/20 12:14:25;;;;;;;68.90;2.80;;;25.50;1.00;;;;;;5126001;28;20403;-83
2023/07/20 12:16:54;;;;;;;67.80;3.10;;;25.40;1.00;;;;;;5106714;28;20447;-82
2023/07/20 12:19:20;;;;;;;66.87;2.97;;;25.20;1.00;;;;;;5109670;28;20420;-82
2023/07/20 12:21:46;;;;;;;67.37;3.17;;;25.00;1.00;;;;;;5127272;28;20924;-83
2023/07/20 12:24:17;;;;;;;66.50;3.00;;;24.70;1.00;;;;;;5103473;28;20412;-83
2023/07/20 12:26:43;;;;;;;66.17;2.60;;;24.30;1.00;;;;;;5104520;28;20171;-82
2023/07/20 12:29:09;;;;;;;66.70;3.07;;;24.20;1.00;;;;;;5123697;28;20438;-83
2023/07/20 12:31:39;;;;;;;67.10;3.03;;;23.90;1.00;;;;;;5125095;28;20398;-83
2023/07/20 12:34:07;;;;;;;66.97;2.80;;;23.70;1.00;;;;;;5123516;28;20168;-83
2023/07/20 12:36:36;;;;;;;67.30;3.30;;;23.60;1.00;;;;;;5105412;28;20916;-83